createdAt,value
2018-02-03T00:00:47.950Z,13.60
2018-02-03T00:03:16.240Z,12.27
2018-02-03T00:05:44.531Z,13.80
2018-02-03T00:08:12.916Z,19.27
2018-02-03T00:10:41.180Z,13.67
2018-02-03T00:13:09.468Z,15.17
2018-02-03T00:15:37.765Z,12.73
2018-02-03T00:18:06.058Z,19.63
2018-02-03T00:20:34.372Z,16.73
2018-02-03T00:23:02.708Z,14.87
2018-02-03T00:25:31.048Z,13.77
2018-02-03T00:27:59.390Z,10.73
2018-02-03T00:30:27.833Z,17.03
2018-02-03T00:32:56.126Z,12.60
2018-02-03T00:35:24.437Z,15.20
2018-02-03T00:37:52.775Z,16.20
2018-02-03T00:42:55.428Z,13.60
2018-02-03T00:45:23.890Z,17.40
2018-02-03T00:47:52.206Z,16.40
2018-02-03T00:50:20.507Z,14.97
2018-02-03T00:52:48.815Z,10.97
2018-02-03T00:55:17.096Z,14.80
2018-02-03T00:57:45.605Z,12.90
2018-02-03T01:00:13.919Z,14.67
2018-02-03T01:02:42.266Z,14.10
2018-02-03T01:05:10.556Z,13.90
2018-02-03T01:07:38.844Z,12.57
2018-02-03T01:10:07.161Z,15.73
2018-02-03T01:12:35.445Z,12.77
2018-02-03T01:15:03.738Z,14.37
2018-02-03T01:17:32.003Z,12.90
2018-02-03T01:20:00.290Z,19.20
2018-02-03T01:22:28.399Z,21.83
2018-02-03T01:24:56.720Z,13.93
2018-02-03T01:27:25.017Z,15.40
2018-02-03T01:29:53.293Z,12.80
2018-02-03T01:32:21.582Z,15.13
2018-02-03T01:34:49.882Z,14.83
2018-02-03T01:37:18.188Z,19.40
2018-02-03T01:39:46.284Z,14.17
2018-02-03T01:42:14.614Z,20.30
2018-02-03T01:44:43.663Z,14.43
2018-02-03T01:47:11.950Z,16.03
2018-02-03T01:49:40.253Z,18.60
2018-02-03T01:52:08.575Z,12.93
2018-02-03T01:54:36.881Z,15.43
2018-02-03T01:57:05.157Z,18.90
2018-02-03T01:59:33.478Z,15.90
2018-02-03T02:02:01.812Z,18.47
2018-02-03T02:04:30.264Z,15.73
2018-02-03T02:06:58.549Z,22.47
2018-02-03T02:09:26.861Z,18.13
2018-02-03T02:11:55.128Z,17.00
2018-02-03T02:14:23.436Z,16.10
2018-02-03T02:16:51.732Z,15.50
2018-02-03T02:19:20.068Z,16.97
2018-02-03T02:21:49.092Z,19.10
2018-02-03T02:24:17.386Z,16.20
2018-02-03T02:26:45.675Z,18.27
2018-02-03T02:29:13.969Z,18.50
2018-02-03T02:31:42.273Z,18.80
2018-02-03T02:34:10.546Z,15.10
2018-02-03T02:36:38.858Z,14.13
2018-02-03T02:39:07.122Z,20.43
2018-02-03T02:41:35.406Z,20.07
2018-02-03T02:44:03.371Z,19.57
2018-02-03T02:46:31.665Z,15.50
2018-02-03T02:48:59.938Z,18.53
2018-02-03T02:51:28.028Z,11.00
2018-02-03T02:53:56.534Z,14.70
2018-02-03T02:56:24.790Z,16.50
2018-02-03T02:58:53.097Z,14.13
2018-02-03T03:01:21.347Z,14.93
2018-02-03T03:03:49.645Z,15.13
2018-02-03T03:06:17.909Z,13.10
2018-02-03T03:08:46.198Z,15.50
2018-02-03T03:11:14.494Z,15.30
2018-02-03T03:13:42.776Z,15.33
2018-02-03T03:16:11.073Z,17.13
2018-02-03T03:18:39.355Z,16.90
2018-02-03T03:21:07.667Z,15.53
2018-02-03T03:23:35.979Z,16.40
2018-02-03T03:26:04.292Z,14.43
2018-02-03T03:28:32.836Z,15.63
2018-02-03T03:31:01.143Z,12.93
2018-02-03T03:33:30.181Z,18.93
2018-02-03T03:35:58.734Z,13.70
2018-02-03T03:38:27.021Z,16.67
2018-02-03T03:40:55.322Z,15.40
2018-02-03T03:43:23.627Z,17.27
2018-02-03T03:45:51.924Z,14.00
2018-02-03T03:48:20.220Z,15.73
2018-02-03T03:50:48.516Z,12.80
2018-02-03T03:53:16.797Z,15.47
2018-02-03T03:55:44.888Z,17.53
2018-02-03T03:58:13.197Z,15.47
2018-02-03T04:00:41.491Z,11.30
2018-02-03T04:03:09.610Z,16.27
2018-02-03T04:05:37.918Z,17.13
2018-02-03T04:08:06.046Z,11.47
2018-02-03T04:10:34.328Z,12.63
2018-02-03T04:13:02.640Z,15.47
2018-02-03T04:15:30.711Z,13.80
2018-02-03T04:17:59.016Z,11.37
2018-02-03T04:20:27.316Z,19.90
2018-02-03T04:22:55.606Z,12.97
2018-02-03T04:25:23.909Z,12.77
2018-02-03T04:27:52.202Z,13.47
2018-02-03T04:30:20.288Z,15.20
2018-02-03T04:32:49.355Z,13.33
2018-02-03T04:35:17.661Z,9.23
2018-02-03T04:37:46.700Z,7.93
2018-02-03T04:40:14.992Z,12.57
2018-02-03T04:42:43.284Z,13.00
2018-02-03T04:45:11.571Z,7.90
2018-02-03T04:47:39.861Z,12.47
2018-02-03T04:50:07.957Z,9.50
2018-02-03T04:52:36.241Z,6.67
2018-02-03T04:55:04.546Z,11.17
2018-02-03T04:57:33.601Z,8.67
2018-02-03T05:00:01.907Z,10.47
2018-02-03T05:02:29.870Z,8.20
2018-02-03T05:04:58.167Z,6.90
2018-02-03T05:07:26.452Z,9.53
2018-02-03T05:09:54.733Z,6.60
2018-02-03T05:12:23.022Z,8.50
2018-02-03T05:14:51.310Z,8.53
2018-02-03T05:17:19.401Z,9.57
2018-02-03T05:19:47.701Z,8.80
2018-02-03T05:22:15.993Z,8.87
2018-02-03T05:24:44.258Z,6.93
2018-02-03T05:27:12.533Z,7.60
2018-02-03T05:29:40.834Z,7.40
2018-02-03T05:32:09.131Z,8.60
2018-02-03T05:34:37.212Z,7.63
2018-02-03T05:37:05.506Z,7.80
2018-02-03T05:39:33.620Z,10.47
2018-02-03T05:42:01.909Z,8.70
2018-02-03T05:44:34.466Z,13.10
2018-02-03T05:47:03.342Z,8.93
2018-02-03T05:49:31.427Z,7.17
2018-02-03T05:51:59.732Z,10.17
2018-02-03T05:54:28.034Z,7.47
2018-02-03T05:56:56.320Z,7.57
2018-02-03T05:59:24.601Z,7.63
2018-02-03T06:01:52.881Z,9.43
2018-02-03T06:04:21.178Z,9.37
2018-02-03T06:06:49.450Z,10.40
2018-02-03T06:09:17.730Z,8.23
2018-02-03T06:11:46.784Z,7.83
2018-02-03T06:14:15.086Z,7.70
2018-02-03T06:16:43.362Z,6.40
2018-02-03T06:19:11.643Z,7.10
2018-02-03T06:21:39.917Z,7.13
2018-02-03T06:24:08.194Z,7.37
2018-02-03T06:26:37.249Z,8.67
2018-02-03T06:29:05.540Z,10.57
2018-02-03T06:31:33.802Z,9.93
2018-02-03T06:34:02.854Z,8.97
2018-02-03T06:36:31.142Z,10.63
2018-02-03T06:38:59.239Z,8.57
2018-02-03T06:41:27.545Z,11.43
2018-02-03T06:43:55.829Z,9.77
2018-02-03T06:46:24.109Z,11.17
2018-02-03T06:48:52.415Z,10.97
2018-02-03T06:51:20.708Z,10.97
2018-02-03T06:53:48.982Z,9.07
2018-02-03T06:56:17.285Z,11.60
2018-02-03T06:58:45.589Z,11.63
2018-02-03T07:01:13.897Z,10.03
2018-02-03T07:03:42.151Z,8.23
2018-02-03T07:06:10.472Z,8.67
2018-02-03T07:08:38.742Z,9.57
2018-02-03T07:11:06.830Z,7.37
2018-02-03T07:13:35.108Z,9.20
2018-02-03T07:16:03.403Z,10.47
2018-02-03T07:18:31.481Z,9.57
2018-02-03T07:20:59.759Z,7.27
2018-02-03T07:23:28.059Z,7.70
2018-02-03T07:25:56.158Z,11.80
2018-02-03T07:28:24.470Z,7.43
2018-02-03T07:30:52.557Z,7.20
2018-02-03T07:33:20.657Z,7.77
2018-02-03T07:35:48.613Z,8.30
2018-02-03T07:38:16.927Z,9.90
2018-02-03T07:40:45.972Z,8.83
2018-02-03T07:43:14.252Z,4.30
2018-02-03T07:45:42.542Z,5.27
2018-02-03T07:48:10.838Z,6.20
2018-02-03T07:50:39.138Z,4.97
2018-02-03T07:53:07.427Z,5.60
2018-02-03T07:55:35.737Z,6.67
2018-02-03T07:58:04.040Z,6.40
2018-02-03T08:00:32.522Z,5.80
2018-02-03T08:03:00.800Z,9.27
2018-02-03T08:05:29.098Z,8.47
2018-02-03T08:07:57.374Z,5.67
2018-02-03T08:10:25.658Z,2.67
2018-02-03T08:12:53.939Z,3.20
2018-02-03T08:15:22.983Z,4.17
2018-02-03T08:17:52.043Z,2.27
2018-02-03T08:20:20.146Z,3.97
2018-02-03T08:22:48.426Z,6.33
2018-02-03T08:25:16.738Z,2.90
2018-02-03T08:27:45.226Z,4.57
2018-02-03T08:30:13.511Z,2.97
2018-02-03T08:32:41.820Z,3.00
2018-02-03T08:35:10.297Z,3.67
2018-02-03T08:37:38.502Z,2.97
2018-02-03T08:40:06.896Z,7.13
2018-02-03T08:42:34.987Z,4.20
2018-02-03T08:45:04.026Z,3.73
2018-02-03T08:47:32.322Z,5.33
2018-02-03T08:50:00.614Z,3.47
2018-02-03T08:52:29.659Z,3.57
2018-02-03T08:54:58.727Z,3.17
2018-02-03T08:57:26.999Z,6.00
2018-02-03T08:59:55.283Z,4.63
2018-02-03T09:02:23.585Z,5.23
2018-02-03T09:04:51.875Z,5.77
2018-02-03T09:07:20.153Z,4.30
2018-02-03T09:09:48.469Z,5.67
2018-02-03T09:12:16.777Z,5.47
2018-02-03T09:14:45.082Z,5.07
2018-02-03T09:17:13.373Z,4.57
2018-02-03T09:19:41.665Z,4.10
2018-02-03T09:22:10.167Z,5.90
2018-02-03T09:24:38.451Z,5.83
2018-02-03T09:27:06.747Z,7.00
2018-02-03T09:29:35.051Z,5.13
2018-02-03T09:32:03.339Z,5.70
2018-02-03T09:34:31.644Z,7.20
2018-02-03T09:36:59.956Z,6.57
2018-02-03T09:39:29.019Z,7.70
2018-02-03T09:41:57.387Z,6.57
2018-02-03T09:44:25.685Z,9.33
2018-02-03T09:49:27.771Z,8.20
2018-02-03T09:51:56.077Z,7.10
2018-02-03T09:54:24.945Z,5.07
2018-02-03T09:56:53.297Z,6.80
2018-02-03T09:59:21.616Z,7.23
2018-02-03T10:01:49.741Z,4.93
2018-02-03T10:04:18.056Z,8.03
2018-02-03T10:06:48.113Z,4.87
2018-02-03T10:09:16.452Z,6.73
2018-02-03T10:11:44.766Z,7.27
2018-02-03T10:14:13.827Z,4.67
2018-02-03T10:16:42.912Z,6.20
2018-02-03T10:19:11.239Z,6.47
2018-02-03T10:21:39.554Z,7.10
2018-02-03T10:24:07.850Z,9.37
2018-02-03T10:26:36.186Z,15.80
2018-02-03T10:29:04.673Z,10.07
2018-02-03T10:31:32.982Z,5.63
2018-02-03T10:34:01.267Z,7.33
2018-02-03T10:36:29.556Z,5.10
2018-02-03T10:38:57.864Z,6.13
2018-02-03T10:41:26.114Z,3.30
2018-02-03T10:43:54.418Z,6.73
2018-02-03T10:46:22.714Z,5.73
2018-02-03T10:48:51.023Z,5.43
2018-02-03T10:51:19.308Z,5.53
2018-02-03T10:53:47.597Z,4.83
2018-02-03T10:56:15.901Z,8.57
2018-02-03T10:58:44.191Z,4.37
2018-02-03T11:01:12.289Z,4.53
2018-02-03T11:03:41.086Z,8.27
2018-02-03T11:06:09.376Z,6.93
2018-02-03T11:08:37.668Z,5.53
2018-02-03T11:11:05.957Z,4.70
2018-02-03T11:13:34.235Z,4.33
2018-02-03T11:16:02.523Z,5.97
2018-02-03T11:18:30.796Z,3.73
2018-02-03T11:20:59.117Z,4.83
2018-02-03T11:23:27.422Z,3.63
2018-02-03T11:25:55.699Z,3.30
2018-02-03T11:28:23.989Z,6.03
2018-02-03T11:30:52.303Z,2.97
2018-02-03T11:33:20.594Z,3.67
2018-02-03T11:35:48.322Z,3.90
2018-02-03T11:38:16.435Z,3.30
2018-02-03T11:40:44.740Z,3.67
2018-02-03T11:43:13.802Z,3.60
2018-02-03T11:45:42.101Z,3.33
2018-02-03T11:48:10.399Z,4.37
2018-02-03T11:50:38.681Z,3.77
2018-02-03T11:53:07.022Z,2.97
2018-02-03T11:55:35.312Z,3.17
2018-02-03T11:58:03.598Z,4.30
2018-02-03T12:00:31.890Z,4.93
2018-02-03T12:03:00.184Z,2.27
2018-02-03T12:05:29.273Z,2.73
2018-02-03T12:07:57.571Z,2.43
2018-02-03T12:10:25.875Z,4.30
2018-02-03T12:12:53.837Z,5.87
2018-02-03T12:15:22.164Z,2.97
2018-02-03T12:17:50.472Z,3.40
2018-02-03T12:20:18.753Z,4.70
2018-02-03T12:22:47.056Z,4.97
2018-02-03T12:25:16.105Z,5.80
2018-02-03T12:27:44.407Z,8.27
2018-02-03T12:30:12.694Z,6.97
2018-02-03T12:32:40.998Z,5.43
2018-02-03T12:35:09.289Z,5.03
2018-02-03T12:37:37.908Z,4.87
2018-02-03T12:40:06.221Z,4.67
2018-02-03T12:42:34.549Z,6.07
2018-02-03T12:45:02.871Z,6.80
2018-02-03T12:47:31.168Z,7.17
2018-02-03T12:49:59.466Z,6.80
2018-02-03T12:52:27.570Z,5.50
2018-02-03T12:54:55.870Z,5.77
2018-02-03T12:57:24.162Z,5.27
2018-02-03T12:59:52.471Z,6.30
2018-02-03T13:02:20.760Z,7.93
2018-02-03T13:04:49.297Z,7.00
2018-02-03T13:07:17.606Z,7.83
2018-02-03T13:09:45.888Z,6.73
2018-02-03T13:12:14.172Z,6.43
2018-02-03T13:14:42.587Z,7.97
2018-02-03T13:17:10.873Z,7.37
2018-02-03T13:19:40.387Z,6.17
2018-02-03T13:22:08.665Z,7.03
2018-02-03T13:24:36.770Z,6.67
2018-02-03T13:27:05.056Z,9.37
2018-02-03T13:29:33.374Z,9.53
2018-02-03T13:32:01.679Z,8.20
2018-02-03T13:34:29.965Z,8.33
2018-02-03T13:36:58.255Z,8.37
2018-02-03T13:39:27.337Z,12.70
2018-02-03T13:41:55.636Z,12.00
2018-02-03T13:44:23.947Z,9.30
2018-02-03T13:46:52.224Z,11.77
2018-02-03T13:49:20.509Z,10.63
2018-02-03T13:51:48.797Z,9.93
2018-02-03T13:54:17.088Z,10.10
2018-02-03T13:56:45.379Z,9.67
2018-02-03T13:59:13.680Z,9.97
2018-02-03T14:01:41.994Z,9.90
2018-02-03T14:04:11.073Z,10.33
2018-02-03T14:06:39.357Z,8.23
2018-02-03T14:09:07.662Z,8.63
2018-02-03T14:11:35.683Z,13.23
2018-02-03T14:14:03.931Z,8.73
2018-02-03T14:16:32.254Z,8.70
2018-02-03T14:19:00.546Z,7.37
2018-02-03T14:21:28.853Z,7.73
2018-02-03T14:24:03.476Z,9.17
2018-02-03T14:26:31.781Z,9.17
2018-02-03T14:29:00.065Z,7.60
2018-02-03T14:31:28.374Z,9.37
2018-02-03T14:33:56.649Z,8.10
2018-02-03T14:36:24.801Z,8.50
2018-02-03T14:38:53.232Z,9.80
2018-02-03T14:41:21.515Z,8.33
2018-02-03T14:43:49.858Z,9.67
2018-02-03T14:46:18.171Z,9.07
2018-02-03T14:48:46.452Z,10.63
2018-02-03T14:51:14.766Z,9.50
2018-02-03T14:53:43.274Z,11.70
2018-02-03T14:56:11.553Z,10.73
2018-02-03T14:58:39.901Z,9.20
2018-02-03T15:01:08.359Z,9.60
2018-02-03T15:03:36.645Z,10.53
2018-02-03T15:06:04.933Z,10.43
2018-02-03T15:08:33.224Z,13.37
2018-02-03T15:11:01.502Z,13.63
2018-02-03T15:13:29.826Z,10.77
2018-02-03T15:15:58.868Z,11.40
2018-02-03T15:18:27.152Z,10.43
2018-02-03T15:20:55.465Z,11.47
2018-02-03T15:23:23.760Z,11.77
2018-02-03T15:25:52.046Z,10.57
2018-02-03T15:28:20.343Z,11.43
2018-02-03T15:30:48.642Z,10.77
2018-02-03T15:33:16.915Z,10.43
2018-02-03T15:35:45.222Z,12.13
2018-02-03T15:38:13.536Z,12.37
2018-02-03T15:40:42.609Z,12.30
2018-02-03T15:43:10.892Z,11.93
2018-02-03T15:45:39.193Z,11.43
2018-02-03T15:48:07.492Z,15.53
2018-02-03T15:50:35.789Z,12.27
2018-02-03T15:53:05.051Z,11.50
2018-02-03T15:55:33.347Z,13.97
2018-02-03T15:58:01.635Z,10.40
2018-02-03T16:00:30.717Z,12.70
2018-02-03T16:02:58.434Z,13.03
2018-02-03T16:05:26.747Z,13.40
2018-02-03T16:07:55.060Z,13.67
2018-02-03T16:10:23.361Z,19.10
2018-02-03T16:12:52.430Z,13.93
2018-02-03T16:15:20.728Z,15.27
2018-02-03T16:17:49.054Z,17.60
2018-02-03T16:20:17.360Z,15.27
2018-02-03T16:22:45.685Z,13.13
2018-02-03T16:25:14.758Z,12.70
2018-02-03T16:27:43.051Z,12.57
2018-02-03T16:30:11.119Z,16.33
2018-02-03T16:32:39.429Z,17.17
2018-02-03T16:35:07.749Z,14.13
2018-02-03T16:37:36.062Z,13.37
2018-02-03T16:40:04.373Z,12.63
2018-02-03T16:42:32.669Z,13.03
2018-02-03T16:45:00.972Z,15.60
2018-02-03T16:47:29.286Z,22.37
2018-02-03T16:49:57.561Z,27.77
2018-02-03T16:52:25.870Z,28.23
2018-02-03T16:54:54.177Z,20.13
2018-02-03T16:57:22.142Z,21.37
2018-02-03T16:59:50.437Z,24.40
2018-02-03T17:02:18.719Z,18.47
2018-02-03T17:04:47.047Z,21.10
2018-02-03T17:07:15.342Z,24.47
2018-02-03T17:09:43.655Z,20.23
2018-02-03T17:12:11.960Z,21.40
2018-02-03T17:14:40.274Z,23.27
2018-02-03T17:17:08.406Z,20.80
2018-02-03T17:19:36.681Z,21.73
2018-02-03T17:22:04.966Z,20.57
2018-02-03T17:24:33.261Z,20.27
2018-02-03T17:27:01.559Z,18.93
2018-02-03T17:29:29.869Z,6.10
2018-02-03T17:31:58.925Z,4.80
2018-02-03T17:34:26.875Z,4.43
2018-02-03T17:37:00.694Z,4.33
2018-02-03T17:39:28.805Z,5.13
2018-02-03T17:41:57.093Z,4.37
2018-02-03T17:44:25.446Z,4.00
2018-02-03T17:46:59.254Z,4.50
2018-02-03T17:49:27.854Z,4.50
2018-02-03T17:51:55.912Z,5.07
2018-02-03T17:54:24.055Z,4.87
2018-02-03T17:56:57.909Z,4.60
2018-02-03T17:59:26.178Z,4.20
2018-02-03T18:01:54.480Z,4.70
2018-02-03T18:04:22.747Z,4.80
2018-02-03T18:06:56.488Z,4.53
2018-02-03T18:09:24.768Z,6.13
2018-02-03T18:11:53.051Z,6.60
2018-02-03T18:14:21.348Z,7.77
2018-02-03T18:16:49.633Z,7.97
2018-02-03T18:19:18.032Z,8.27
2018-02-03T18:21:46.310Z,8.63
2018-02-03T18:24:14.602Z,8.20
2018-02-03T18:26:42.903Z,9.07
2018-02-03T18:29:11.197Z,8.57
2018-02-03T18:31:39.499Z,7.77
2018-02-03T18:34:07.779Z,8.30
2018-02-03T18:36:36.088Z,7.90
2018-02-03T18:39:03.858Z,7.87
2018-02-03T18:41:32.157Z,7.57
2018-02-03T18:44:00.441Z,8.70
2018-02-03T18:46:28.754Z,7.57
2018-02-03T18:48:56.477Z,8.57
2018-02-03T18:51:25.545Z,7.17
2018-02-03T18:53:53.856Z,9.40
2018-02-03T18:56:22.157Z,7.13
2018-02-03T18:58:50.459Z,8.07
2018-02-03T19:01:18.748Z,8.00
2018-02-03T19:03:47.105Z,7.73
2018-02-03T19:06:15.488Z,7.77
2018-02-03T19:08:43.785Z,9.13
2018-02-03T19:11:12.095Z,9.17
2018-02-03T19:13:40.381Z,9.43
2018-02-03T19:16:08.669Z,7.53
2018-02-03T19:18:37.052Z,7.00
2018-02-03T19:21:05.330Z,7.23
2018-02-03T19:23:33.650Z,7.13
2018-02-03T19:26:02.703Z,6.67
2018-02-03T19:28:30.408Z,8.73
2018-02-03T19:30:58.705Z,6.73
2018-02-03T19:33:27.022Z,9.10
2018-02-03T19:35:55.324Z,10.90
2018-02-03T19:38:23.589Z,9.40
2018-02-03T19:40:51.880Z,8.60
2018-02-03T19:43:20.237Z,7.87
2018-02-03T19:45:48.529Z,9.50
2018-02-03T19:48:16.493Z,10.70
2018-02-03T19:50:44.794Z,9.47
2018-02-03T19:53:13.320Z,11.47
2018-02-03T19:55:42.359Z,10.77
2018-02-03T19:58:10.641Z,11.00
2018-02-03T20:00:38.928Z,9.90
2018-02-03T20:03:07.224Z,10.07
2018-02-03T20:05:35.507Z,11.43
2018-02-03T20:08:03.813Z,11.87
2018-02-03T20:10:32.106Z,13.27
2018-02-03T20:13:00.380Z,12.00
2018-02-03T20:15:28.673Z,13.43
2018-02-03T20:17:56.949Z,14.33
2018-02-03T20:20:25.259Z,11.63
2018-02-03T20:22:53.541Z,12.50
2018-02-03T20:25:21.830Z,15.63
2018-02-03T20:27:50.304Z,11.80
2018-02-03T20:30:18.588Z,10.80
2018-02-03T20:32:46.862Z,13.47
2018-02-03T20:35:15.164Z,10.53
2018-02-03T20:37:43.457Z,10.60
2018-02-03T20:40:11.733Z,11.33
2018-02-03T20:42:40.785Z,12.40
2018-02-03T20:45:09.512Z,11.53
2018-02-03T20:47:37.617Z,10.20
2018-02-03T20:50:06.096Z,11.03
2018-02-03T20:52:34.703Z,11.73
2018-02-03T20:55:02.660Z,12.43
2018-02-03T20:57:30.942Z,10.40
2018-02-03T20:59:59.057Z,12.17
2018-02-03T21:02:28.283Z,11.90
2018-02-03T21:04:56.569Z,13.10
2018-02-03T21:07:24.838Z,11.67
2018-02-03T21:09:53.122Z,11.93
2018-02-03T21:12:21.390Z,12.73
2018-02-03T21:14:50.508Z,11.17
2018-02-03T21:17:18.795Z,12.63
2018-02-03T21:19:47.107Z,12.07
2018-02-03T21:22:15.405Z,12.83
2018-02-03T21:24:43.710Z,13.00
2018-02-03T21:27:12.778Z,12.37
2018-02-03T21:29:41.060Z,14.00
2018-02-03T21:32:09.332Z,13.27
2018-02-03T21:34:37.605Z,11.30
2018-02-03T21:37:05.897Z,9.60
2018-02-03T21:39:34.177Z,9.70
2018-02-03T21:42:02.261Z,7.80
2018-02-03T21:44:30.539Z,9.53
2018-02-03T21:46:58.808Z,8.60
2018-02-03T21:49:27.508Z,8.90
2018-02-03T21:51:55.805Z,8.20
2018-02-03T21:54:24.082Z,10.40
2018-02-03T21:56:52.355Z,7.27
2018-02-03T21:59:20.632Z,6.87
2018-02-03T22:01:48.902Z,6.97
2018-02-03T22:04:17.164Z,6.13
2018-02-03T22:06:45.463Z,6.77
2018-02-03T22:09:13.747Z,9.00
2018-02-03T22:11:42.025Z,4.83
2018-02-03T22:14:10.325Z,4.20
2018-02-03T22:16:38.573Z,6.03
2018-02-03T22:19:06.869Z,5.40
2018-02-03T22:21:35.156Z,4.70
2018-02-03T22:24:03.442Z,5.17
2018-02-03T22:26:31.711Z,6.47
2018-02-03T22:29:00.030Z,4.40
2018-02-03T22:31:28.345Z,3.63
2018-02-03T22:33:56.043Z,3.60
2018-02-03T22:36:24.305Z,5.30
2018-02-03T22:38:52.569Z,4.23
2018-02-03T22:41:20.834Z,4.20
2018-02-03T22:43:49.124Z,4.53
2018-02-03T22:46:17.420Z,5.23
2018-02-03T22:48:45.355Z,3.57
2018-02-03T22:51:13.610Z,4.40
2018-02-03T22:53:41.882Z,6.87
2018-02-03T22:56:10.167Z,5.17
2018-02-03T22:58:38.442Z,4.87
2018-02-03T23:01:12.278Z,6.20
2018-02-03T23:03:40.606Z,5.67
2018-02-03T23:06:09.809Z,4.30
2018-02-03T23:08:38.087Z,4.60
2018-02-03T23:11:06.378Z,4.83
2018-02-03T23:13:34.091Z,3.87
2018-02-03T23:16:02.357Z,4.83
2018-02-03T23:18:30.916Z,4.60
2018-02-03T23:20:59.398Z,5.47
2018-02-03T23:23:27.680Z,4.43
2018-02-03T23:25:55.947Z,5.37
2018-02-03T23:28:24.219Z,4.87
2018-02-03T23:30:52.481Z,7.97
2018-02-03T23:33:20.761Z,6.03
2018-02-03T23:35:49.041Z,5.50
2018-02-03T23:38:17.313Z,4.33
2018-02-03T23:40:45.576Z,4.93
2018-02-03T23:43:13.874Z,5.10
2018-02-03T23:45:42.143Z,4.17
2018-02-03T23:48:10.421Z,4.43
2018-02-03T23:50:38.764Z,5.10
2018-02-03T23:53:07.046Z,5.30
2018-02-03T23:55:35.308Z,5.23
2018-02-03T23:58:04.348Z,4.50
